Time;durP1;ratioP1;P1;durP2;ratioP2;P2;SDS_P1;SDS_P2;PMS_P1;PMS_P2;Temp;Humidity;BMP_temperature;BMP_pressure;BME280_temperature;BME280_humidity;BME280_pressure;Samples;Min_cycle;Max_cycle;Signal;HPM_P1;HPM_P2
2023/01/08 00:01:42;;;;;;;7.47;2.47;;;;;;;-2.40;100.00;95131.84;4965858;28;20042;-77
2023/01/08 00:04:08;;;;;;;4.75;2.30;;;;;;;-2.29;100.00;95141.56;4987470;28;20504;-77
2023/01/08 00:06:34;;;;;;;4.97;2.47;;;;;;;-2.24;100.00;95135.84;4988060;28;20048;-77
2023/01/08 00:09:00;;;;;;;4.80;2.38;;;;;;;-2.14;100.00;95135.41;4973442;28;20121;-77
2023/01/08 00:11:26;;;;;;;4.40;2.10;;;;;;;-2.20;100.00;95124.09;4976244;28;20054;-77
2023/01/08 00:13:52;;;;;;;4.22;2.00;;;;;;;-2.21;100.00;95114.81;4987344;28;20047;-76
2023/01/08 00:16:19;;;;;;;5.10;2.38;;;;;;;-2.22;100.00;95102.13;4975676;28;20057;-76
2023/01/08 00:18:46;;;;;;;5.45;2.30;;;;;;;-2.18;100.00;95111.03;5005491;28;20046;-76
2023/01/08 00:21:12;;;;;;;7.90;2.35;;;;;;;-2.18;100.00;95108.47;4994934;28;20065;-77
2023/01/08 00:23:38;;;;;;;4.10;2.33;;;;;;;-2.21;100.00;95108.84;4960751;28;20043;-77
2023/01/08 00:26:08;;;;;;;7.15;2.10;;;;;;;-2.32;100.00;95103.28;4986927;28;20034;-77
2023/01/08 00:28:35;;;;;;;4.30;2.08;;;;;;;-2.30;100.00;95096.16;4975291;28;20385;-76
2023/01/08 00:31:05;;;;;;;3.47;2.20;;;;;;;-2.23;100.00;95101.31;4988530;28;20045;-76
2023/01/08 00:33:31;;;;;;;9.82;2.53;;;;;;;-2.19;100.00;95093.97;4990903;28;20043;-77
2023/01/08 00:35:56;;;;;;;4.07;2.10;;;;;;;-2.14;100.00;95089.00;4969364;28;20050;-77
2023/01/08 00:38:26;;;;;;;3.80;2.03;;;;;;;-2.16;100.00;95086.63;4991063;28;20584;-77
2023/01/08 00:40:52;;;;;;;3.75;2.15;;;;;;;-2.28;100.00;95073.56;4969321;28;20444;-76
2023/01/08 00:43:20;;;;;;;3.58;2.00;;;;;;;-2.23;100.00;95079.91;4992821;28;20089;-76
2023/01/08 00:45:45;;;;;;;3.63;2.08;;;;;;;-2.27;100.00;95070.00;4992196;28;20481;-76
2023/01/08 00:48:11;;;;;;;4.10;2.28;;;;;;;-2.30;100.00;95070.41;4988172;28;20126;-77
2023/01/08 00:50:37;;;;;;;3.58;2.20;;;;;;;-2.19;100.00;95073.38;4974849;28;20046;-77
2023/01/08 00:53:03;;;;;;;5.22;2.00;;;;;;;-2.23;100.00;95064.44;4991371;28;20141;-77
2023/01/08 00:55:29;;;;;;;7.43;2.10;;;;;;;-2.30;100.00;95062.66;4987382;28;20039;-77
2023/01/08 00:57:56;;;;;;;3.40;2.00;;;;;;;-2.32;100.00;95056.91;4990908;28;20042;-76
2023/01/08 01:00:23;;;;;;;3.38;2.00;;;;;;;-2.32;100.00;95049.16;4963780;28;20042;-76
2023/01/08 01:02:48;;;;;;;7.03;2.50;;;;;;;-2.34;100.00;95047.78;4992348;28;20540;-77
2023/01/08 01:05:15;;;;;;;5.38;2.17;;;;;;;-2.34;100.00;95047.78;4980648;28;20046;-77
2023/01/08 01:07:42;;;;;;;6.53;2.47;;;;;;;-2.40;100.00;95039.06;4975364;28;20416;-77
2023/01/08 01:10:09;;;;;;;3.60;2.35;;;;;;;-2.39;100.00;95037.28;4980112;28;20057;-77
2023/01/08 01:12:36;;;;;;;3.25;2.10;;;;;;;-2.42;100.00;95041.06;4985634;28;20146;-77
2023/01/08 01:15:02;;;;;;;5.32;2.40;;;;;;;-2.20;100.00;95053.72;4983957;28;20046;-77
2023/01/08 01:17:28;;;;;;;8.10;2.60;;;;;;;-2.31;100.00;95053.34;4977730;28;20047;-77
2023/01/08 01:19:53;;;;;;;8.63;3.80;;;;;;;-2.21;100.00;95062.44;4989309;28;20045;-77
2023/01/08 01:22:19;;;;;;;7.13;3.40;;;;;;;-2.20;100.00;95069.19;4985452;28;20042;-77
2023/01/08 01:24:45;;;;;;;5.97;3.25;;;;;;;-2.16;100.00;95072.97;4986235;28;20097;-77
2023/01/08 01:27:10;;;;;;;8.93;3.47;;;;;;;-2.44;100.00;95068.81;4999047;28;20519;-77
2023/01/08 01:29:36;;;;;;;7.20;3.38;;;;;;;-2.52;100.00;95069.00;4990924;28;20512;-77
2023/01/08 01:32:01;;;;;;;8.00;3.53;;;;;;;-2.45;100.00;95072.38;4985953;28;20439;-77
2023/01/08 01:34:27;;;;;;;7.20;3.67;;;;;;;-2.44;100.00;95079.13;4967560;28;20496;-77
2023/01/08 01:36:52;;;;;;;7.72;4.03;;;;;;;-2.43;100.00;95078.13;4991484;28;20042;-77
2023/01/08 01:39:18;;;;;;;9.13;3.88;;;;;;;-2.42;100.00;95066.81;4973523;28;20046;-77
2023/01/08 01:41:46;;;;;;;7.30;4.13;;;;;;;-2.47;100.00;95064.03;4973480;28;20057;-75
2023/01/08 01:44:35;;;;;;;10.60;3.90;;;;;;;-2.48;100.00;95065.03;4980177;28;20719;-75
2023/01/08 01:47:35;;;;;;;8.18;4.18;;;;;;;-2.48;100.00;95062.47;4961901;28;20038;-75
2023/01/08 01:50:20;;;;;;;11.13;3.63;;;;;;;-2.56;100.00;95054.94;4959232;28;20061;-76
2023/01/08 01:52:58;;;;;;;7.82;3.50;;;;;;;-2.59;100.00;95063.06;4976998;28;20097;-75
2023/01/08 01:55:26;;;;;;;7.78;3.50;;;;;;;-2.57;100.00;95072.19;4973266;28;20046;-76
2023/01/08 01:58:18;;;;;;;7.82;3.40;;;;;;;-2.59;100.00;95070.78;4969885;28;20043;-77
2023/01/08 02:00:43;;;;;;;4.97;2.95;;;;;;;-2.68;100.00;95060.66;4971379;28;20086;-76
2023/01/08 02:03:11;;;;;;;6.05;3.05;;;;;;;-2.71;100.00;95050.75;4975397;28;20057;-76
2023/01/08 02:05:57;;;;;;;6.38;2.88;;;;;;;-2.76;100.00;95042.03;4956671;28;20039;-76
2023/01/08 02:08:41;;;;;;;7.53;3.00;;;;;;;-2.70;100.00;95039.47;4970625;28;20034;-77
2023/01/08 02:11:15;;;;;;;5.63;2.90;;;;;;;-2.72;100.00;95041.44;4984929;28;20049;-76
2023/01/08 02:13:51;;;;;;;4.47;2.65;;;;;;;-2.70;100.00;95039.47;4986341;28;21756;-77
2023/01/08 02:16:27;;;;;;;5.45;2.90;;;;;;;-2.82;100.00;95036.66;4982006;28;20042;-77
2023/01/08 02:19:02;;;;;;;6.68;2.88;;;;;;;-2.82;100.00;95036.66;4977187;28;20440;-76
2023/01/08 02:21:46;;;;;;;7.28;2.72;;;;;;;-2.86;100.00;95034.69;4968849;28;20493;-76
2023/01/08 02:24:20;;;;;;;7.15;2.83;;;;;;;-2.83;100.00;95024.00;4975968;28;20532;-76
2023/01/08 02:26:47;;;;;;;;;;;;;;;-2.79;100.00;95020.03;4977728;28;20074;-77
2023/01/08 02:29:14;;;;;;;4.93;2.22;;;;;;;-2.74;100.00;95009.13;4967649;28;19926;-76
2023/01/08 02:31:42;;;;;;;5.68;2.42;;;;;;;-2.79;100.00;95009.75;4979619;28;20042;-76
2023/01/08 02:34:08;;;;;;;7.18;2.70;;;;;;;-2.80;100.00;95013.31;4972394;28;20038;-76
2023/01/08 02:36:40;;;;;;;7.07;2.78;;;;;;;-2.92;100.00;95004.59;4970453;28;20096;-77
2023/01/08 02:39:36;;;;;;;5.80;2.88;;;;;;;-3.00;100.00;95005.59;4978676;28;20038;-76
2023/01/08 02:42:14;;;;;;;7.40;2.60;;;;;;;-2.90;100.00;95007.75;4966830;28;20069;-77
2023/01/08 02:45:01;;;;;;;6.32;2.67;;;;;;;-2.79;100.00;95012.31;4989174;28;20535;-77
2023/01/08 02:47:33;;;;;;;4.97;2.53;;;;;;;-2.92;100.00;95002.00;4970648;28;20047;-77
2023/01/08 02:50:31;;;;;;;4.80;2.80;;;;;;;-2.89;100.00;94993.91;4995888;28;20097;-77
2023/01/08 02:52:59;;;;;;;6.22;2.20;;;;;;;-2.86;100.00;94998.66;4958783;28;20054;-77
2023/01/08 02:55:27;;;;;;;4.30;2.47;;;;;;;-2.84;100.00;94996.69;4991051;28;20062;-76
2023/01/08 02:57:53;;;;;;;7.20;2.63;;;;;;;-2.80;100.00;95008.19;4969867;28;20043;-77
2023/01/08 03:00:20;;;;;;;5.50;3.10;;;;;;;-2.72;100.00;95005.38;4980603;28;20046;-77
2023/01/08 03:02:50;;;;;;;6.40;2.92;;;;;;;-2.76;100.00;95008.56;4982810;28;20045;-78
2023/01/08 03:05:24;;;;;;;6.95;3.30;;;;;;;-2.78;100.00;95003.59;4976568;28;20133;-77
2023/01/08 03:07:50;;;;;;;6.32;3.00;;;;;;;-2.92;100.00;95004.59;4978097;28;20121;-77
2023/01/08 03:10:18;;;;;;;5.30;2.88;;;;;;;-2.91;100.00;94995.88;5000375;28;20076;-76
2023/01/08 03:13:08;;;;;;;7.57;3.08;;;;;;;-2.94;100.00;94991.09;4982210;28;20034;-75
2023/01/08 03:15:50;;;;;;;4.50;2.50;;;;;;;-2.85;100.00;94984.78;4983544;28;20051;-75
2023/01/08 03:18:23;;;;;;;5.32;2.47;;;;;;;-2.89;100.00;94988.75;4966303;28;20042;-75
2023/01/08 03:20:50;;;;;;;4.57;2.43;;;;;;;-2.96;100.00;94975.84;4970081;28;20116;-75
2023/01/08 03:23:18;;;;;;;7.65;2.70;;;;;;;-2.93;100.00;94978.06;4982523;28;20035;-75
2023/01/08 03:25:46;;;;;;;5.38;2.45;;;;;;;-2.85;100.00;94969.34;4983591;28;20043;-75
2023/01/08 03:28:23;;;;;;;5.80;2.05;;;;;;;-2.74;100.00;94976.47;4984516;28;20050;-75
2023/01/08 03:30:51;;;;;;;5.70;2.35;;;;;;;-2.72;100.00;94969.31;4986586;28;20048;-76
2023/01/08 03:33:18;;;;;;;3.70;2.10;;;;;;;-2.84;100.00;94963.97;4989940;28;20050;-75
2023/01/08 03:35:49;;;;;;;10.93;2.83;;;;;;;-2.84;100.00;94960.63;4965693;28;20078;-75
2023/01/08 03:38:26;;;;;;;5.95;2.40;;;;;;;-2.77;100.00;94964.00;4989493;28;20457;-76
2023/01/08 03:40:58;;;;;;;4.68;2.25;;;;;;;-2.81;100.00;94947.34;4964912;28;20039;-76
2023/01/08 03:43:24;;;;;;;3.90;2.10;;;;;;;-2.75;100.00;94949.13;4982686;28;20045;-78
2023/01/08 03:45:57;;;;;;;5.55;1.85;;;;;;;-2.78;100.00;94947.72;4984734;28;20043;-76
2023/01/08 03:48:24;;;;;;;5.00;2.28;;;;;;;-2.69;100.00;94940.59;4985697;28;20046;-76
2023/01/08 03:50:50;;;;;;;9.35;2.40;;;;;;;-2.74;100.00;94935.25;4986745;28;20097;-76
2023/01/08 03:53:15;;;;;;;5.03;2.13;;;;;;;-2.70;100.00;94935.63;4979569;28;20038;-76
2023/01/08 03:55:41;;;;;;;6.22;2.53;;;;;;;-2.88;100.00;94938.84;4985347;28;20047;-76
2023/01/08 03:58:07;;;;;;;10.35;2.60;;;;;;;-2.86;100.00;94931.69;4991143;28;20050;-76
2023/01/08 04:00:32;;;;;;;4.13;2.10;;;;;;;-2.93;100.00;94930.91;4984202;28;20053;-77
2023/01/08 04:02:58;;;;;;;5.22;2.42;;;;;;;-2.94;100.00;94924.16;4984441;28;20050;-77
2023/01/08 04:05:23;;;;;;;3.72;2.10;;;;;;;-2.93;100.00;94915.47;4990338;28;20065;-76
2023/01/08 04:07:49;;;;;;;2.90;1.90;;;;;;;-2.88;100.00;94913.09;4977355;28;20731;-76
2023/01/08 04:10:15;;;;;;;3.60;1.90;;;;;;;-2.94;100.00;94919.00;4981124;28;20077;-76
2023/01/08 04:12:43;;;;;;;4.50;2.28;;;;;;;-2.93;100.00;94920.59;4989392;28;20688;-77
2023/01/08 04:15:09;;;;;;;6.00;2.30;;;;;;;-3.03;100.00;94918.41;4985151;28;20039;-77
2023/01/08 04:17:34;;;;;;;3.30;2.00;;;;;;;-3.05;100.00;94908.31;4957078;28;20413;-77
2023/01/08 04:20:00;;;;;;;4.50;2.05;;;;;;;-2.93;100.00;94905.97;4987670;28;20045;-76
2023/01/08 04:22:25;;;;;;;4.07;2.20;;;;;;;-2.90;100.00;94904.75;4980870;28;20420;-76
2023/01/08 04:24:51;;;;;;;3.17;2.00;;;;;;;-2.84;100.00;94919.44;4986219;28;20050;-76
2023/01/08 04:27:17;;;;;;;4.25;2.13;;;;;;;-2.83;100.00;94915.84;4986060;28;20043;-76
2023/01/08 04:29:42;;;;;;;3.78;2.05;;;;;;;-2.84;100.00;94915.06;4984247;28;20129;-76
2023/01/08 04:32:08;;;;;;;7.15;2.40;;;;;;;-2.87;100.00;94910.31;4965472;28;20038;-76
2023/01/08 04:34:33;;;;;;;4.15;1.80;;;;;;;-2.90;100.00;94904.75;4982553;28;20519;-76
2023/01/08 04:36:59;;;;;;;4.53;2.10;;;;;;;-3.03;100.00;94916.66;4973640;28;20132;-77
2023/01/08 04:39:25;;;;;;;3.20;1.90;;;;;;;-3.10;100.00;94909.91;4967040;28;20046;-77
2023/01/08 04:41:50;;;;;;;3.88;2.00;;;;;;;-3.05;100.00;94913.47;4968546;28;20050;-76
2023/01/08 04:44:16;;;;;;;4.32;2.17;;;;;;;-3.01;100.00;94909.50;4976370;28;20042;-77
2023/01/08 04:46:41;;;;;;;4.72;1.88;;;;;;;-2.99;100.00;94912.69;4988846;28;20049;-77
2023/01/08 04:49:07;;;;;;;7.28;2.10;;;;;;;-2.96;100.00;94902.00;4985681;28;20497;-76
2023/01/08 04:51:32;;;;;;;4.13;1.92;;;;;;;-2.97;100.00;94884.97;4972028;28;20589;-77
2023/01/08 04:53:58;;;;;;;3.38;2.08;;;;;;;-2.93;100.00;94885.38;4978389;28;20045;-76
2023/01/08 04:56:23;;;;;;;3.10;1.80;;;;;;;-3.03;100.00;94890.91;4991034;28;20050;-76
2023/01/08 04:58:49;;;;;;;3.22;2.08;;;;;;;-3.01;100.00;94883.78;4971936;28;20062;-76
2023/01/08 05:01:21;;;;;;;2.95;1.83;;;;;;;-2.99;100.00;94876.66;4980228;28;20081;-77
2023/01/08 05:03:51;;;;;;;3.08;1.90;;;;;;;-2.97;100.00;94879.81;4983810;28;20038;-77
2023/01/08 05:06:16;;;;;;;4.53;2.03;;;;;;;-3.03;100.00;94888.34;4985002;28;20410;-76
2023/01/08 05:08:42;;;;;;;3.78;1.92;;;;;;;-2.92;100.00;94875.84;4977321;28;20125;-77
2023/01/08 05:11:07;;;;;;;4.70;2.17;;;;;;;-2.98;100.00;94867.91;4984215;28;20042;-76
2023/01/08 05:13:33;;;;;;;4.45;2.10;;;;;;;-2.97;100.00;94887.53;4984687;28;20492;-77
2023/01/08 05:15:59;;;;;;;3.78;1.90;;;;;;;-2.93;100.00;94889.72;4959508;28;20074;-77
2023/01/08 05:18:26;;;;;;;3.40;1.80;;;;;;;-2.96;100.00;94876.25;4972836;28;20057;-77
2023/01/08 05:20:51;;;;;;;3.13;1.75;;;;;;;-2.94;100.00;94877.81;4982377;28;20046;-77
2023/01/08 05:23:17;;;;;;;7.95;2.10;;;;;;;-2.93;100.00;94874.25;4974320;28;20074;-77
2023/01/08 05:25:43;;;;;;;3.63;1.95;;;;;;;-2.91;100.00;94872.28;4988956;28;20083;-77
2023/01/08 05:28:08;;;;;;;4.53;2.03;;;;;;;-3.02;100.00;94866.72;4955682;28;20122;-76
2023/01/08 05:30:35;;;;;;;6.47;2.25;;;;;;;-3.01;100.00;94863.19;4976280;28;20045;-77
2023/01/08 05:33:01;;;;;;;3.70;2.10;;;;;;;-2.97;100.00;94864.38;4982012;28;20038;-77
2023/01/08 05:35:26;;;;;;;2.75;1.70;;;;;;;-2.91;100.00;94862.00;4992637;28;20057;-77
2023/01/08 05:37:52;;;;;;;4.93;2.10;;;;;;;-2.97;100.00;94854.06;4999319;28;20500;-76
2023/01/08 05:40:18;;;;;;;3.75;2.10;;;;;;;-3.13;100.00;94854.50;4967723;28;20490;-76
2023/01/08 05:42:44;;;;;;;6.18;1.95;;;;;;;-3.08;100.00;94862.41;4985180;28;20468;-77
2023/01/08 05:45:09;;;;;;;4.53;1.90;;;;;;;-3.05;100.00;94867.13;4977325;28;20090;-77
2023/01/08 05:47:35;;;;;;;4.03;2.28;;;;;;;-3.04;100.00;94867.94;4999918;28;20034;-77
2023/01/08 05:50:01;;;;;;;2.70;1.90;;;;;;;-3.06;100.00;94865.56;4982230;28;20243;-77
2023/01/08 05:52:26;;;;;;;2.55;1.52;;;;;;;-3.08;100.00;94857.25;4974087;28;20030;-76
2023/01/08 05:54:52;;;;;;;3.63;1.85;;;;;;;-3.04;100.00;94850.72;4979682;28;20102;-77
2023/01/08 05:57:18;;;;;;;4.60;1.85;;;;;;;-3.06;100.00;94839.84;4981271;28;20073;-77
2023/01/08 05:59:43;;;;;;;3.35;1.90;;;;;;;-3.03;100.00;94849.72;4987450;28;20042;-77
2023/01/08 06:02:09;;;;;;;5.28;1.88;;;;;;;-2.98;100.00;94849.91;5004753;28;20634;-77
2023/01/08 06:04:34;;;;;;;5.35;2.17;;;;;;;-2.91;100.00;94862.00;4962194;28;20046;-77
2023/01/08 06:07:00;;;;;;;4.28;1.92;;;;;;;-2.82;100.00;94860.78;4979428;28;20071;-77
2023/01/08 06:09:25;;;;;;;4.22;1.90;;;;;;;-2.84;100.00;94867.94;4984588;28;20069;-77
2023/01/08 06:11:51;;;;;;;4.55;2.33;;;;;;;-2.84;100.00;94862.78;4970002;28;20301;-77
2023/01/08 06:14:17;;;;;;;4.07;1.85;;;;;;;-2.84;100.00;94873.06;4967543;28;20049;-77
2023/01/08 06:16:43;;;;;;;5.85;2.47;;;;;;;-2.91;100.00;94882.59;4973085;28;20046;-77
2023/01/08 06:19:11;;;;;;;4.45;2.15;;;;;;;-3.01;100.00;94868.31;4987281;28;20051;-77
2023/01/08 06:21:37;;;;;;;3.80;1.88;;;;;;;-2.98;100.00;94867.91;4969407;28;20413;-77
2023/01/08 06:24:03;;;;;;;3.33;1.92;;;;;;;-2.88;100.00;94862.38;4960650;28;20039;-77
2023/01/08 06:26:32;;;;;;;2.97;1.90;;;;;;;-2.78;100.00;94872.25;4981467;28;20509;-76
2023/01/08 06:28:57;;;;;;;3.33;1.80;;;;;;;-2.68;100.00;94872.63;4994251;28;20034;-77
2023/01/08 06:31:23;;;;;;;4.20;2.10;;;;;;;-2.76;100.00;94865.13;4994388;28;20054;-77
2023/01/08 06:33:49;;;;;;;5.00;2.00;;;;;;;-2.76;100.00;94875.41;4995656;28;20045;-77
2023/01/08 06:36:15;;;;;;;3.38;2.00;;;;;;;-2.77;100.00;94876.44;4981664;28;20578;-77
2023/01/08 06:38:40;;;;;;;4.47;2.10;;;;;;;-2.84;100.00;94873.84;4985018;28;20046;-77
2023/01/08 06:41:09;;;;;;;4.55;2.30;;;;;;;-2.90;100.00;94868.69;4980146;28;20039;-77
2023/01/08 06:43:35;;;;;;;3.88;1.90;;;;;;;-2.88;100.00;94877.03;4968428;28;20160;-77
2023/01/08 06:46:02;;;;;;;4.05;2.17;;;;;;;-2.86;100.00;94885.34;4967304;28;20058;-77
2023/01/08 06:48:28;;;;;;;3.33;1.73;;;;;;;-2.86;100.00;94872.47;4990243;28;20497;-77
2023/01/08 06:50:53;;;;;;;3.72;1.98;;;;;;;-2.78;100.00;94869.69;4977001;28;20098;-77
2023/01/08 06:53:19;;;;;;;4.68;2.03;;;;;;;-2.79;100.00;94860.38;4982529;28;20042;-77
2023/01/08 06:55:45;;;;;;;2.88;1.80;;;;;;;-2.78;100.00;94867.09;4993806;28;20081;-77
2023/01/08 06:58:11;;;;;;;2.70;1.80;;;;;;;-2.77;100.00;94873.84;4978590;28;20045;-75
2023/01/08 07:00:38;;;;;;;3.65;2.10;;;;;;;-2.83;100.00;94880.59;4977839;28;20039;-72
2023/01/08 07:03:03;;;;;;;4.15;2.20;;;;;;;-2.69;100.00;94886.50;5005768;28;20042;-78
2023/01/08 07:05:30;;;;;;;4.35;2.15;;;;;;;-2.58;100.00;94879.16;5009692;28;20106;-76
2023/01/08 07:07:55;;;;;;;3.38;1.88;;;;;;;-2.46;100.00;94885.25;5003334;28;20054;-75
2023/01/08 07:10:21;;;;;;;5.20;2.17;;;;;;;-2.61;100.00;94883.72;5006963;28;20038;-74
2023/01/08 07:12:47;;;;;;;3.45;1.98;;;;;;;-2.63;100.00;94883.13;5016593;28;20090;-74
2023/01/08 07:15:13;;;;;;;3.95;2.13;;;;;;;-2.64;100.00;94881.53;5016947;28;20046;-75
2023/01/08 07:17:38;;;;;;;5.68;2.38;;;;;;;-2.65;100.00;94886.91;5005041;28;20057;-76
2023/01/08 07:20:05;;;;;;;5.75;2.40;;;;;;;-2.70;100.00;94889.28;5021329;28;20034;-77
2023/01/08 07:22:30;;;;;;;4.85;2.50;;;;;;;-2.65;100.00;94892.81;5021553;28;20030;-76
2023/01/08 07:24:56;;;;;;;3.65;2.00;;;;;;;-2.56;100.00;94895.19;5020946;28;20214;-76
2023/01/08 07:27:21;;;;;;;5.00;2.22;;;;;;;-2.49;100.00;94895.97;5011353;28;20034;-69
2023/01/08 07:29:47;;;;;;;4.60;2.15;;;;;;;-2.40;100.00;94893.97;4989246;28;20042;-74
2023/01/08 07:32:12;;;;;;;4.30;2.28;;;;;;;-2.41;100.00;94898.34;4986647;28;20096;-72
2023/01/08 07:34:38;;;;;;;4.80;2.13;;;;;;;-2.44;100.00;94888.44;4988123;28;20496;-72
2023/01/08 07:37:03;;;;;;;3.42;2.13;;;;;;;-2.41;100.00;94889.78;4990431;28;20052;-74
2023/01/08 07:39:30;;;;;;;3.85;2.13;;;;;;;-2.35;100.00;94881.28;4990990;28;20085;-76
2023/01/08 07:41:56;;;;;;;5.20;2.38;;;;;;;-2.26;100.00;94885.19;4983779;28;20130;-75
2023/01/08 07:44:21;;;;;;;3.60;1.90;;;;;;;-2.21;100.00;94882.81;4989224;28;20485;-74
2023/01/08 07:46:47;;;;;;;3.65;2.08;;;;;;;-2.27;100.00;94884.41;4993735;28;20034;-76
2023/01/08 07:49:12;;;;;;;5.85;2.58;;;;;;;-2.18;100.00;94881.63;4975573;28;20042;-74
2023/01/08 07:51:38;;;;;;;5.40;2.70;;;;;;;-2.20;100.00;94886.16;4962923;28;20089;-74
2023/01/08 07:54:04;;;;;;;8.05;2.28;;;;;;;-2.15;100.00;94881.19;4986205;28;20063;-75
2023/01/08 07:56:29;;;;;;;5.00;2.20;;;;;;;-2.08;100.00;94866.50;4988010;28;20049;-74
2023/01/08 07:58:55;;;;;;;5.88;2.40;;;;;;;-1.99;100.00;94872.97;4971582;28;20439;-76
2023/01/08 08:01:20;;;;;;;3.72;2.20;;;;;;;-1.93;100.00;94874.72;4985644;28;20050;-75
2023/01/08 08:03:46;;;;;;;4.53;2.70;;;;;;;-1.84;100.00;94874.50;4988727;28;20039;-77
2023/01/08 08:06:11;;;;;;;23.27;6.60;;;;;;;-1.79;100.00;94869.50;4975562;28;20042;-76
2023/01/08 08:08:37;;;;;;;30.40;8.85;;;;;;;-1.76;100.00;94858.78;4988722;28;20039;-75
2023/01/08 08:11:03;;;;;;;33.13;9.48;;;;;;;-1.73;100.00;94863.53;4984882;28;20045;-75
2023/01/08 08:13:29;;;;;;;11.48;4.65;;;;;;;-1.69;100.00;94864.69;4988268;28;20556;-75
2023/01/08 08:15:54;;;;;;;16.92;7.05;;;;;;;-1.58;100.00;94866.59;4987815;28;20050;-75
2023/01/08 08:18:20;;;;;;;12.52;3.92;;;;;;;-1.51;100.00;94858.03;4991854;28;20117;-75
2023/01/08 08:20:46;;;;;;;7.57;3.25;;;;;;;-1.47;100.00;94857.38;4990730;28;20050;-74
2023/01/08 08:23:13;;;;;;;5.75;2.67;;;;;;;-1.39;100.00;94869.25;4983799;28;20038;-75
2023/01/08 08:25:40;;;;;;;7.35;2.42;;;;;;;-1.33;100.00;94868.41;4969207;28;20046;-75
2023/01/08 08:28:09;;;;;;;5.30;2.75;;;;;;;-1.19;100.00;94874.28;4985020;28;20046;-75
2023/01/08 08:30:35;;;;;;;6.00;2.72;;;;;;;-1.10;100.00;94872.22;4985672;28;20049;-74
2023/01/08 08:33:03;;;;;;;6.50;2.90;;;;;;;-0.96;100.00;94876.25;4988343;28;20065;-75
2023/01/08 08:35:30;;;;;;;30.13;8.15;;;;;;;-0.85;100.00;94879.16;4983094;28;20046;-76
2023/01/08 08:37:57;;;;;;;17.23;5.93;;;;;;;-0.91;100.00;94871.22;4991322;28;20049;-76
2023/01/08 08:40:23;;;;;;;25.38;6.32;;;;;;;-0.80;100.00;94876.72;4987305;28;20042;-72
2023/01/08 08:42:54;;;;;;;27.88;8.00;;;;;;;-0.74;100.00;94881.03;4984339;28;20038;-76
2023/01/08 08:45:20;;;;;;;32.25;7.72;;;;;;;-0.62;100.00;94879.31;4970791;28;20408;-76
2023/01/08 08:47:45;;;;;;;89.20;21.60;;;;;;;-0.58;100.00;94885.63;4991010;28;20035;-76
2023/01/08 08:50:11;;;;;;;21.90;6.45;;;;;;;-0.53;100.00;94890.97;4974291;28;20497;-76
2023/01/08 08:52:36;;;;;;;25.73;6.72;;;;;;;-0.54;100.00;94886.78;4966276;28;20473;-76
2023/01/08 08:55:02;;;;;;;31.70;8.85;;;;;;;-0.47;100.00;94883.38;4972396;28;20047;-76
2023/01/08 08:57:28;;;;;;;22.27;5.72;;;;;;;-0.37;100.00;94881.06;4972386;28;20047;-77
2023/01/08 08:59:53;;;;;;;12.65;4.05;;;;;;;-0.32;100.00;94864.91;4969796;28;20045;-77
2023/01/08 09:02:19;;;;;;;4.25;2.35;;;;;;;-0.29;100.00;94867.81;4977811;28;20117;-75
2023/01/08 09:04:44;;;;;;;5.82;2.63;;;;;;;-0.14;100.00;94875.22;4988895;28;20097;-75
2023/01/08 09:07:10;;;;;;;5.05;2.45;;;;;;;-0.05;100.00;94867.97;4985035;28;20428;-75
2023/01/08 09:09:35;;;;;;;8.48;3.08;;;;;;;0.05;100.00;94878.56;4983705;28;20548;-75
2023/01/08 09:12:01;;;;;;;7.20;3.45;;;;;;;0.21;100.00;94884.16;4982323;28;20043;-75
2023/01/08 09:14:27;;;;;;;5.80;2.90;;;;;;;0.40;100.00;94885.66;4981026;28;20501;-75
2023/01/08 09:16:52;;;;;;;5.45;2.35;;;;;;;0.58;100.00;94886.63;4991294;28;20043;-76
2023/01/08 09:19:18;;;;;;;5.38;2.65;;;;;;;0.71;100.00;94894.22;4989505;28;20174;-75
2023/01/08 09:21:44;;;;;;;5.32;3.03;;;;;;;0.80;100.00;94900.63;4973057;28;20042;-75
2023/01/08 09:24:09;;;;;;;5.35;2.85;;;;;;;0.90;100.00;94904.50;4995122;28;20042;-75
2023/01/08 09:26:35;;;;;;;12.45;3.10;;;;;;;1.02;100.00;94898.31;4983361;28;20042;-76
2023/01/08 09:29:01;;;;;;;5.55;2.78;;;;;;;1.10;100.00;94899.78;4984135;28;20043;-75
2023/01/08 09:31:27;;;;;;;6.47;3.10;;;;;;;1.16;100.00;94898.88;4989395;28;20121;-75
2023/01/08 09:33:52;;;;;;;6.13;2.90;;;;;;;1.19;100.00;94898.44;5001769;28;20045;-76
2023/01/08 09:36:18;;;;;;;4.63;2.67;;;;;;;1.12;100.00;94897.75;4991099;28;20398;-76
2023/01/08 09:38:44;;;;;;;7.28;3.25;;;;;;;1.26;100.00;94898.31;4970169;28;20556;-77
2023/01/08 09:41:25;;;;;;;7.50;3.00;;;;;;;1.42;100.00;94907.22;4990308;28;20049;-75
2023/01/08 09:43:53;;;;;;;8.15;3.00;;;;;;;1.60;100.00;94897.75;4985500;28;20062;-75
2023/01/08 09:46:23;;;;;;;6.63;3.15;;;;;;;1.71;100.00;94904.72;4985208;28;20042;-75
2023/01/08 09:48:51;;;;;;;4.88;2.80;;;;;;;1.92;100.00;94897.34;4993087;28;20046;-78
2023/01/08 09:51:19;;;;;;;7.32;2.80;;;;;;;2.24;100.00;94882.91;4989394;28;20046;-78
2023/01/08 09:53:49;;;;;;;4.68;2.40;;;;;;;2.81;100.00;94876.06;4964203;28;20042;-77
2023/01/08 09:56:17;;;;;;;4.13;2.33;;;;;;;3.20;100.00;94870.94;4991904;28;20049;-75
2023/01/08 09:58:50;;;;;;;6.38;2.30;;;;;;;3.36;100.00;94855.56;4975284;28;20096;-76
2023/01/08 10:01:25;;;;;;;5.07;2.53;;;;;;;3.20;100.00;94851.97;4988245;28;20051;-75
2023/01/08 10:04:25;;;;;;;4.70;2.28;;;;;;;3.39;100.00;94844.69;4963829;28;20042;-79
2023/01/08 10:07:09;;;;;;;6.97;2.67;;;;;;;3.51;100.00;94847.97;4972444;28;20051;-76
2023/01/08 10:09:35;;;;;;;5.35;2.97;;;;;;;4.03;100.00;94853.78;4974170;28;20065;-75
2023/01/08 10:12:04;;;;;;;4.93;2.45;;;;;;;4.69;100.00;94846.59;4971540;28;20043;-75
2023/01/08 10:14:36;;;;;;;6.00;2.70;;;;;;;5.34;100.00;94845.75;4958783;28;20122;-74
2023/01/08 10:17:15;;;;;;;8.73;3.45;;;;;;;6.05;100.00;94834.88;4963699;28;20051;-75
2023/01/08 10:19:41;;;;;;;4.78;2.65;;;;;;;6.12;100.00;94818.97;4960909;28;20045;-75
2023/01/08 10:22:14;;;;;;;10.57;4.25;;;;;;;5.82;100.00;94841.31;4966593;28;20073;-73
2023/01/08 10:24:39;;;;;;;9.18;4.00;;;;;;;6.60;100.00;94844.94;4988416;28;20050;-73
2023/01/08 10:27:17;;;;;;;10.32;4.28;;;;;;;6.25;100.00;94849.06;4985954;28;20038;-73
2023/01/08 10:29:45;;;;;;;11.18;4.07;;;;;;;6.05;100.00;94847.94;4996888;28;20112;-73
2023/01/08 10:32:16;;;;;;;10.65;4.82;;;;;;;6.21;100.00;94854.00;4991253;28;20041;-73
2023/01/08 10:34:49;;;;;;;20.10;7.07;;;;;;;5.94;100.00;94841.09;4989945;28;20035;-72
2023/01/08 10:37:22;;;;;;;6.45;2.88;;;;;;;6.27;99.70;94835.75;4992267;28;20050;-73
2023/01/08 10:39:48;;;;;;;10.90;3.30;;;;;;;6.87;99.27;94822.97;4978664;28;20221;-74
2023/01/08 10:42:16;;;;;;;7.78;2.70;;;;;;;6.52;100.00;94819.28;4962672;28;20047;-74
2023/01/08 10:45:03;;;;;;;7.75;3.03;;;;;;;6.50;98.06;94824.00;4989289;28;20077;-73
2023/01/08 10:47:32;;;;;;;9.10;2.47;;;;;;;6.58;92.73;94826.13;4989541;28;20038;-74
2023/01/08 10:49:59;;;;;;;6.07;2.92;;;;;;;6.32;95.72;94827.88;4985897;28;20038;-74
2023/01/08 10:52:31;;;;;;;7.60;3.47;;;;;;;6.47;93.76;94824.53;4999018;28;20488;-77
2023/01/08 10:55:09;;;;;;;8.90;2.60;;;;;;;6.35;90.84;94816.91;4991902;28;20416;-74
2023/01/08 10:57:35;;;;;;;4.63;2.40;;;;;;;6.38;90.17;94827.66;4986345;28;20043;-74
2023/01/08 11:00:01;;;;;;;5.05;2.50;;;;;;;6.13;90.83;94835.44;4992638;28;20182;-75
2023/01/08 11:02:35;;;;;;;9.57;4.55;;;;;;;6.07;94.44;94822.34;4984870;28;20066;-74
2023/01/08 11:05:03;;;;;;;6.22;3.40;;;;;;;5.76;100.00;94826.66;4975670;28;20042;-75
2023/01/08 11:07:34;;;;;;;6.88;3.70;;;;;;;6.16;94.76;94834.91;4986878;28;20034;-76
2023/01/08 11:10:01;;;;;;;7.70;3.40;;;;;;;5.90;95.96;94822.53;4988426;28;20130;-75
2023/01/08 11:12:54;;;;;;;7.03;3.58;;;;;;;5.84;99.38;94817.56;4963805;28;20043;-77
2023/01/08 11:15:20;;;;;;;7.32;3.40;;;;;;;5.69;100.00;94826.91;4974364;28;20119;-74
2023/01/08 11:17:46;;;;;;;7.47;2.67;;;;;;;5.52;100.00;94832.28;4984121;28;20038;-76
2023/01/08 11:20:26;;;;;;;5.47;2.30;;;;;;;5.59;100.00;94832.06;4992829;28;20038;-77
2023/01/08 11:23:12;;;;;;;8.95;2.67;;;;;;;5.51;100.00;94819.50;4987537;28;20053;-76
2023/01/08 11:25:39;;;;;;;6.57;2.42;;;;;;;5.38;100.00;94811.06;4985969;28;20051;-75
2023/01/08 11:28:07;;;;;;;8.13;2.50;;;;;;;5.37;100.00;94799.09;4984207;28;20039;-75
2023/01/08 11:30:37;;;;;;;6.30;2.70;;;;;;;5.38;100.00;94790.19;4996659;28;20101;-77
2023/01/08 11:33:15;;;;;;;5.18;2.60;;;;;;;5.45;100.00;94770.94;5000408;28;20038;-75